Time;durP1;ratioP1;P1;durP2;ratioP2;P2;SDS_P1;SDS_P2;PMS_P1;PMS_P2;Temp;Humidity;BMP_temperature;BMP_pressure;BME280_temperature;BME280_humidity;BME280_pressure;Samples;Min_cycle;Max_cycle;Signal;HPM_P1;HPM_P2
2023/08/31 00:00:44;;;;;;;1.40;1.40;;;16.10;99.90;;;;;;5097584;28;20201;-76
2023/08/31 00:03:10;;;;;;;1.37;1.00;;;16.00;99.90;;;;;;5099722;28;20194;-75
2023/08/31 00:05:41;;;;;;;1.40;1.40;;;16.10;99.90;;;;;;5108983;28;20170;-79
2023/08/31 00:08:07;;;;;;;1.30;1.20;;;16.10;99.90;;;;;;5106911;28;20170;-77
2023/08/31 00:10:35;;;;;;;1.63;1.10;;;16.00;99.90;;;;;;5113847;28;20177;-77
2023/08/31 00:13:04;;;;;;;1.13;1.13;;;16.10;99.90;;;;;;5112366;28;20252;-76
2023/08/31 00:15:32;;;;;;;1.37;1.37;;;16.10;99.90;;;;;;5096558;28;20198;-76
2023/08/31 00:17:58;;;;;;;1.43;1.43;;;16.00;99.90;;;;;;5096711;28;20215;-77
2023/08/31 00:20:25;;;;;;;1.80;1.70;;;16.00;99.90;;;;;;5096990;28;20171;-77
2023/08/31 00:22:50;;;;;;;1.97;1.87;;;16.00;99.90;;;;;;5096714;28;20170;-76
2023/08/31 00:25:17;;;;;;;1.90;1.60;;;16.00;99.90;;;;;;5096394;28;20553;-77
2023/08/31 00:27:43;;;;;;;2.30;1.43;;;16.00;99.90;;;;;;5098777;28;20231;-77
2023/08/31 00:30:11;;;;;;;1.60;1.60;;;16.00;99.90;;;;;;5100275;28;20174;-75
2023/08/31 00:32:39;;;;;;;1.70;1.60;;;15.90;99.90;;;;;;5096480;28;20170;-76
2023/08/31 00:35:08;;;;;;;1.70;1.60;;;15.90;99.90;;;;;;5095722;28;20767;-77
2023/08/31 00:37:34;;;;;;;1.77;1.77;;;15.80;99.90;;;;;;5108223;28;20182;-78
2023/08/31 00:40:00;;;;;;;1.60;1.60;;;15.80;99.90;;;;;;5096962;28;20670;-77
2023/08/31 00:42:26;;;;;;;1.90;1.80;;;15.80;99.90;;;;;;5096400;28;20218;-77
2023/08/31 00:44:51;;;;;;;2.90;2.07;;;15.80;99.90;;;;;;5096430;28;20630;-78
2023/08/31 00:47:17;;;;;;;2.23;2.03;;;15.70;99.90;;;;;;5096980;28;20170;-77
2023/08/31 00:49:43;;;;;;;2.07;1.90;;;15.70;99.90;;;;;;5107160;28;20220;-79
2023/08/31 00:52:10;;;;;;;2.17;2.07;;;15.70;99.90;;;;;;5096331;28;20236;-76
2023/08/31 00:54:36;;;;;;;2.17;2.07;;;15.60;99.90;;;;;;5101107;28;20182;-76
2023/08/31 00:57:03;;;;;;;2.00;1.97;;;15.60;99.90;;;;;;5120985;28;20231;-81
2023/08/31 00:59:29;;;;;;;1.80;1.80;;;15.60;99.90;;;;;;5099476;28;20175;-76
2023/08/31 01:02:27;;;;;;;1.83;1.73;;;15.60;99.90;;;;;;5096363;28;20672;-81
2023/08/31 01:05:03;;;;;;;1.80;1.80;;;15.50;99.90;;;;;;5075725;28;20186;-78
2023/08/31 01:07:40;;;;;;;2.20;2.10;;;15.40;99.90;;;;;;5077930;28;20186;-76
2023/08/31 01:10:25;;;;;;;2.00;1.87;;;15.40;99.90;;;;;;5096010;28;20166;-77
2023/08/31 01:12:57;;;;;;;2.00;1.90;;;15.40;99.90;;;;;;5095733;28;20171;-76
2023/08/31 01:15:25;;;;;;;2.17;2.07;;;15.30;99.90;;;;;;5095901;28;20595;-78
2023/08/31 01:17:54;;;;;;;2.90;2.20;;;15.30;99.90;;;;;;5095771;28;20218;-78
2023/08/31 01:20:58;;;;;;;2.23;2.13;;;15.10;99.90;;;;;;5077779;28;20258;-76
2023/08/31 01:23:34;;;;;;;1.97;1.87;;;15.10;99.90;;;;;;5090953;28;20635;-78
2023/08/31 01:26:02;;;;;;;2.10;2.00;;;15.00;99.90;;;;;;5108314;28;20164;-78
2023/08/31 01:28:28;;;;;;;2.10;2.00;;;15.00;99.90;;;;;;5106966;28;20169;-78
2023/08/31 01:30:53;;;;;;;2.20;1.80;;;15.00;99.90;;;;;;5105463;28;20177;-76
2023/08/31 01:33:19;;;;;;;1.80;1.70;;;15.00;99.90;;;;;;5095530;28;20170;-79
2023/08/31 01:35:52;;;;;;;2.10;2.00;;;15.00;99.90;;;;;;5095162;28;20201;-77
2023/08/31 01:38:25;;;;;;;2.20;2.10;;;15.00;99.90;;;;;;5096161;28;20159;-79
2023/08/31 01:40:59;;;;;;;2.17;2.07;;;15.00;99.90;;;;;;5099462;28;20195;-77
2023/08/31 01:43:26;;;;;;;2.10;2.00;;;15.00;99.90;;;;;;5095163;28;20318;-78
2023/08/31 01:45:52;;;;;;;2.50;1.97;;;15.10;99.90;;;;;;5094083;28;20630;-78
2023/08/31 01:48:18;;;;;;;1.80;1.80;;;15.00;99.90;;;;;;5077112;28;20174;-76
2023/08/31 01:50:44;;;;;;;2.30;2.20;;;15.00;99.90;;;;;;5095240;28;20182;-79
2023/08/31 01:53:09;;;;;;;2.03;1.93;;;15.00;99.90;;;;;;5095484;28;20652;-80
2023/08/31 01:55:35;;;;;;;2.00;1.90;;;15.10;99.90;;;;;;5084093;28;20212;-79
2023/08/31 01:58:01;;;;;;;2.37;2.27;;;15.10;99.90;;;;;;5105629;28;20629;-79
2023/08/31 02:00:28;;;;;;;2.47;2.10;;;15.10;99.90;;;;;;5094826;28;20177;-79
2023/08/31 02:02:53;;;;;;;2.47;1.90;;;15.10;99.90;;;;;;5094523;28;20578;-79
2023/08/31 02:05:19;;;;;;;1.93;1.90;;;15.10;99.90;;;;;;5094586;28;20223;-75
2023/08/31 02:07:45;;;;;;;2.23;2.10;;;15.10;99.90;;;;;;5076235;28;20174;-76
2023/08/31 02:10:11;;;;;;;2.10;2.00;;;15.10;99.90;;;;;;5094615;28;20201;-76
2023/08/31 02:12:37;;;;;;;2.07;1.97;;;15.00;99.90;;;;;;5093619;28;20529;-77
2023/08/31 02:15:05;;;;;;;2.30;2.20;;;15.10;99.90;;;;;;5094800;28;20186;-76
2023/08/31 02:17:31;;;;;;;2.40;2.20;;;15.10;99.90;;;;;;5105993;28;20245;-77
2023/08/31 02:19:57;;;;;;;1.97;1.87;;;15.10;99.90;;;;;;5093832;28;20629;-77
2023/08/31 02:22:23;;;;;;;2.30;2.20;;;15.10;99.90;;;;;;5094237;28;20646;-77
2023/08/31 02:24:49;;;;;;;1.83;1.83;;;15.10;99.90;;;;;;5094179;28;20251;-77
2023/08/31 02:27:15;;;;;;;2.07;1.97;;;15.20;99.90;;;;;;5097569;28;20165;-79
2023/08/31 02:29:40;;;;;;;2.20;2.10;;;15.00;99.90;;;;;;5104268;28;20170;-77
2023/08/31 02:32:07;;;;;;;2.20;1.93;;;14.90;99.90;;;;;;5096740;28;20166;-80
2023/08/31 02:34:32;;;;;;;2.50;2.20;;;14.90;99.90;;;;;;5094145;28;20171;-80
2023/08/31 02:36:58;;;;;;;2.30;2.20;;;14.90;99.90;;;;;;5094331;28;20576;-77
2023/08/31 02:39:24;;;;;;;2.30;2.20;;;14.80;99.90;;;;;;5096517;28;20177;-78
2023/08/31 02:41:50;;;;;;;2.43;2.33;;;14.80;99.90;;;;;;5096466;28;20186;-77
2023/08/31 02:44:15;;;;;;;2.57;2.47;;;14.80;99.90;;;;;;5096298;28;20174;-76
2023/08/31 02:46:41;;;;;;;2.40;2.30;;;14.80;99.90;;;;;;5094708;28;20198;-77
2023/08/31 02:49:07;;;;;;;2.57;2.40;;;14.80;99.90;;;;;;5109440;28;20162;-79
2023/08/31 02:51:32;;;;;;;4.40;2.20;;;14.90;99.90;;;;;;5105883;28;20552;-78
2023/08/31 02:53:58;;;;;;;2.00;1.90;;;14.90;99.90;;;;;;5094954;28;20256;-80
2023/08/31 02:56:24;;;;;;;2.57;2.30;;;14.90;99.90;;;;;;5093691;28;20224;-79
2023/08/31 02:58:50;;;;;;;3.10;2.10;;;15.00;99.90;;;;;;5093381;28;20576;-78
2023/08/31 03:01:16;;;;;;;2.27;2.10;;;15.00;99.90;;;;;;5093516;28;20173;-77
2023/08/31 03:03:42;;;;;;;2.30;2.20;;;15.00;99.90;;;;;;5093574;28;20209;-78
2023/08/31 03:06:09;;;;;;;2.33;2.23;;;15.00;99.90;;;;;;5093439;28;20594;-79
2023/08/31 03:08:36;;;;;;;3.37;2.70;;;15.00;99.90;;;;;;5093466;28;20256;-77
2023/08/31 03:11:03;;;;;;;2.40;2.30;;;15.00;99.90;;;;;;5093991;28;20537;-78
2023/08/31 03:13:29;;;;;;;2.70;2.50;;;14.90;99.90;;;;;;5094090;28;20197;-78
2023/08/31 03:15:56;;;;;;;2.13;2.03;;;14.80;99.90;;;;;;5093740;28;20205;-76
2023/08/31 03:18:22;;;;;;;2.20;2.10;;;14.80;99.90;;;;;;5093422;28;20581;-76
2023/08/31 03:20:48;;;;;;;2.63;2.13;;;14.80;99.90;;;;;;5093288;28;20177;-78
2023/08/31 03:23:14;;;;;;;2.97;2.30;;;14.90;99.90;;;;;;5093322;28;20184;-78
2023/08/31 03:25:40;;;;;;;1.70;1.70;;;14.90;99.90;;;;;;5093472;28;20171;-77
2023/08/31 03:28:06;;;;;;;2.20;2.10;;;14.90;99.90;;;;;;5093380;28;20206;-77
2023/08/31 03:30:32;;;;;;;2.20;2.10;;;14.80;99.90;;;;;;5093279;28;20245;-77
2023/08/31 03:32:58;;;;;;;3.07;2.77;;;14.80;99.90;;;;;;5093255;28;20178;-78
2023/08/31 03:35:26;;;;;;;2.30;2.20;;;14.80;99.90;;;;;;5092945;28;20290;-76
2023/08/31 03:37:53;;;;;;;2.63;2.53;;;14.80;99.90;;;;;;5093424;28;20200;-78
2023/08/31 03:40:19;;;;;;;2.33;2.23;;;14.80;99.90;;;;;;5093297;28;20177;-77
2023/08/31 03:42:45;;;;;;;2.57;2.37;;;14.90;99.90;;;;;;5095888;28;20171;-79
2023/08/31 03:45:11;;;;;;;2.63;2.53;;;14.80;99.90;;;;;;5118204;28;20159;-76
2023/08/31 03:47:37;;;;;;;3.53;2.60;;;14.80;99.90;;;;;;5117985;28;20170;-76
2023/08/31 03:50:04;;;;;;;2.40;2.30;;;14.70;99.90;;;;;;5118006;28;20182;-78
2023/08/31 03:52:29;;;;;;;2.70;2.50;;;14.70;99.90;;;;;;5118119;28;20153;-79
2023/08/31 03:54:55;;;;;;;2.80;2.60;;;14.70;99.90;;;;;;5115825;28;20240;-77
2023/08/31 03:57:21;;;;;;;2.67;2.57;;;14.70;99.90;;;;;;5117012;28;20201;-80
2023/08/31 03:59:47;;;;;;;2.67;2.57;;;14.70;99.90;;;;;;5118477;28;20167;-76
2023/08/31 04:02:13;;;;;;;2.97;2.73;;;14.70;99.90;;;;;;5117997;28;20169;-81
2023/08/31 04:04:39;;;;;;;2.77;2.63;;;14.70;99.90;;;;;;5118291;28;20189;-77
2023/08/31 04:07:06;;;;;;;2.60;2.50;;;14.70;99.90;;;;;;5110640;28;20183;-76
2023/08/31 04:09:32;;;;;;;2.50;2.40;;;14.70;99.90;;;;;;5114660;28;20170;-77
2023/08/31 04:11:58;;;;;;;2.90;2.70;;;14.70;99.90;;;;;;5101329;28;20194;-75
2023/08/31 04:14:26;;;;;;;2.77;2.67;;;14.70;99.90;;;;;;5114795;28;20196;-77
2023/08/31 04:16:52;;;;;;;3.00;2.80;;;14.60;99.90;;;;;;5086804;28;20237;-77
2023/08/31 04:19:18;;;;;;;2.63;2.50;;;14.60;99.90;;;;;;5098795;28;20176;-77
2023/08/31 04:21:44;;;;;;;2.73;2.53;;;14.60;99.90;;;;;;5099044;28;20528;-76
2023/08/31 04:24:10;;;;;;;3.10;2.90;;;14.60;99.90;;;;;;5101833;28;20205;-76
2023/08/31 04:26:36;;;;;;;3.83;2.70;;;14.80;99.90;;;;;;5096843;28;20621;-78
2023/08/31 04:29:05;;;;;;;5.23;2.70;;;14.80;99.90;;;;;;5096580;28;20175;-75
2023/08/31 04:31:31;;;;;;;2.50;2.40;;;14.80;99.90;;;;;;5097103;28;20174;-77
2023/08/31 04:33:58;;;;;;;3.10;2.93;;;14.80;99.90;;;;;;5097473;28;20177;-78
2023/08/31 04:36:25;;;;;;;2.90;2.70;;;14.80;99.90;;;;;;5097175;28;20218;-77
2023/08/31 04:38:52;;;;;;;3.17;2.93;;;14.60;99.90;;;;;;5097805;28;20173;-78
2023/08/31 04:41:18;;;;;;;3.00;2.70;;;14.60;99.90;;;;;;5097801;28;20187;-76
2023/08/31 04:43:47;;;;;;;3.67;2.83;;;14.70;99.90;;;;;;5096364;28;20210;-77
2023/08/31 04:46:13;;;;;;;2.63;2.50;;;14.70;99.90;;;;;;5116498;28;20199;-76
2023/08/31 04:48:39;;;;;;;3.10;2.90;;;14.70;99.90;;;;;;5110140;28;20178;-77
2023/08/31 04:51:05;;;;;;;2.87;2.77;;;14.80;99.90;;;;;;5096491;28;20170;-79
2023/08/31 04:53:31;;;;;;;2.70;2.50;;;14.80;99.90;;;;;;5096192;28;20521;-77
2023/08/31 04:55:57;;;;;;;2.87;2.70;;;14.80;99.90;;;;;;5095880;28;20243;-76
2023/08/31 04:58:23;;;;;;;4.70;2.80;;;14.80;99.90;;;;;;5099877;28;20205;-77
2023/08/31 05:00:49;;;;;;;3.13;2.93;;;14.80;99.90;;;;;;5079396;28;20191;-78
2023/08/31 05:03:15;;;;;;;3.20;2.90;;;14.90;99.90;;;;;;5095698;28;20178;-78
2023/08/31 05:05:43;;;;;;;3.00;2.80;;;14.90;99.90;;;;;;5096051;28;20175;-78
2023/08/31 05:08:09;;;;;;;3.47;3.27;;;14.90;99.90;;;;;;5077849;28;20182;-77
2023/08/31 05:10:36;;;;;;;3.00;2.80;;;14.90;99.90;;;;;;5095763;28;20175;-77
2023/08/31 05:13:04;;;;;;;3.17;2.97;;;15.10;99.90;;;;;;5096019;28;20200;-80
2023/08/31 05:15:30;;;;;;;2.93;2.73;;;14.90;99.90;;;;;;5095282;28;20255;-79
2023/08/31 05:17:56;;;;;;;2.83;2.67;;;14.90;99.90;;;;;;5098699;28;20214;-76
2023/08/31 05:20:23;;;;;;;4.07;3.77;;;15.00;99.90;;;;;;5101996;28;20661;-78
2023/08/31 05:22:49;;;;;;;2.63;2.53;;;15.00;99.90;;;;;;5097295;28;20174;-76
2023/08/31 05:25:15;;;;;;;3.57;3.20;;;15.00;99.90;;;;;;5103389;28;20170;-77
2023/08/31 05:27:40;;;;;;;4.23;3.93;;;15.00;99.90;;;;;;5108742;28;20185;-76
2023/08/31 05:30:07;;;;;;;3.60;3.30;;;15.00;99.90;;;;;;5097053;28;20178;-80
2023/08/31 05:32:33;;;;;;;3.53;3.13;;;15.00;99.90;;;;;;5095200;28;20166;-77
2023/08/31 05:34:59;;;;;;;3.53;3.23;;;15.00;99.90;;;;;;5095584;28;20476;-76
2023/08/31 05:37:25;;;;;;;3.63;3.33;;;15.00;99.90;;;;;;5111486;28;20199;-76
2023/08/31 05:39:51;;;;;;;3.60;3.30;;;15.00;99.90;;;;;;5095403;28;20247;-77
2023/08/31 05:42:17;;;;;;;3.50;3.10;;;15.10;99.90;;;;;;5095348;28;20174;-77
2023/08/31 05:44:44;;;;;;;3.23;3.07;;;15.10;99.90;;;;;;5094998;28;20170;-76
2023/08/31 05:47:10;;;;;;;4.03;2.90;;;15.10;99.90;;;;;;5078511;28;20170;-76
2023/08/31 05:49:35;;;;;;;4.27;3.40;;;15.20;99.90;;;;;;5079511;28;20642;-77
2023/08/31 05:52:01;;;;;;;3.30;3.00;;;15.20;99.90;;;;;;5095078;28;20171;-80
2023/08/31 05:54:27;;;;;;;3.93;3.30;;;15.20;99.90;;;;;;5094835;28;20170;-78
2023/08/31 05:56:53;;;;;;;3.93;3.63;;;15.30;99.90;;;;;;5094762;28;20202;-77
2023/08/31 05:59:21;;;;;;;5.30;3.70;;;15.30;99.90;;;;;;5095119;28;20178;-77
2023/08/31 06:01:46;;;;;;;3.77;3.40;;;15.30;99.90;;;;;;5094777;28;20177;-76
2023/08/31 06:04:12;;;;;;;3.70;3.40;;;15.40;99.90;;;;;;5094744;28;20174;-76
2023/08/31 06:06:38;;;;;;;3.63;3.43;;;15.40;99.90;;;;;;5094958;28;20529;-77
2023/08/31 06:09:06;;;;;;;3.60;3.30;;;15.40;99.90;;;;;;5098334;28;20167;-78
2023/08/31 06:11:32;;;;;;;4.00;3.70;;;15.40;99.90;;;;;;5095499;28;20265;-78
2023/08/31 06:13:58;;;;;;;4.67;3.43;;;15.40;99.90;;;;;;5094713;28;20202;-78
2023/08/31 06:16:24;;;;;;;4.10;3.70;;;15.50;99.90;;;;;;5093896;28;20673;-79
2023/08/31 06:18:49;;;;;;;5.60;3.53;;;15.50;99.90;;;;;;5093731;28;20583;-76
2023/08/31 06:21:16;;;;;;;3.37;3.17;;;15.50;99.90;;;;;;5094683;28;20614;-76
2023/08/31 06:23:42;;;;;;;4.97;3.10;;;15.50;99.90;;;;;;5076049;28;20186;-79
2023/08/31 06:26:08;;;;;;;4.30;3.60;;;15.70;99.90;;;;;;5094423;28;20174;-77
2023/08/31 06:28:34;;;;;;;3.57;3.27;;;15.60;99.90;;;;;;5094735;28;20202;-78
2023/08/31 06:30:59;;;;;;;3.20;3.00;;;15.70;99.90;;;;;;5094669;28;20212;-77
2023/08/31 06:33:25;;;;;;;3.83;3.63;;;15.70;99.90;;;;;;5094966;28;20170;-78
2023/08/31 06:35:54;;;;;;;5.03;3.87;;;15.80;99.90;;;;;;5101763;28;20186;-78
2023/08/31 06:38:20;;;;;;;6.87;3.50;;;15.90;99.90;;;;;;5116204;28;20191;-77
2023/08/31 06:40:47;;;;;;;3.57;3.37;;;16.00;99.90;;;;;;5096955;28;20629;-77
2023/08/31 06:43:12;;;;;;;5.70;3.37;;;16.10;99.90;;;;;;5094710;28;20170;-77
2023/08/31 06:45:38;;;;;;;4.73;3.80;;;16.20;99.90;;;;;;5094867;28;20186;-77
2023/08/31 06:48:04;;;;;;;5.30;3.70;;;16.20;99.90;;;;;;5100184;28;20195;-77
2023/08/31 06:50:30;;;;;;;4.30;4.00;;;16.20;99.90;;;;;;5094256;28;20253;-78
2023/08/31 06:52:56;;;;;;;3.93;3.63;;;16.20;99.90;;;;;;5076022;28;20181;-78
2023/08/31 06:55:22;;;;;;;4.60;3.50;;;16.20;99.90;;;;;;5094438;28;20420;-78
2023/08/31 06:57:48;;;;;;;4.10;3.80;;;16.20;99.90;;;;;;5101315;28;20181;-75
2023/08/31 07:00:14;;;;;;;3.93;3.63;;;16.10;99.90;;;;;;5110339;28;20198;-79
2023/08/31 07:02:41;;;;;;;3.47;3.20;;;16.20;99.90;;;;;;5094087;28;20182;-79
2023/08/31 07:05:07;;;;;;;4.43;3.20;;;16.20;99.90;;;;;;5094330;28;20178;-80
2023/08/31 07:07:33;;;;;;;3.40;3.20;;;16.30;99.90;;;;;;5094311;28;20261;-77
2023/08/31 07:09:59;;;;;;;4.30;3.90;;;16.40;99.90;;;;;;5101185;28;20255;-76
2023/08/31 07:12:25;;;;;;;3.80;3.60;;;16.30;99.90;;;;;;5111583;28;20179;-75
2023/08/31 07:14:51;;;;;;;4.30;4.00;;;16.30;99.90;;;;;;5096893;28;20679;-76
2023/08/31 07:17:20;;;;;;;3.70;3.40;;;16.50;99.90;;;;;;5090099;28;20224;-76
2023/08/31 07:19:46;;;;;;;4.70;4.30;;;16.60;99.90;;;;;;5083450;28;20179;-79
2023/08/31 07:22:12;;;;;;;4.13;3.83;;;16.60;99.90;;;;;;5094021;28;20175;-79
2023/08/31 07:24:38;;;;;;;4.07;3.83;;;16.70;99.90;;;;;;5093632;28;20166;-77
2023/08/31 07:27:04;;;;;;;4.23;3.93;;;16.80;99.90;;;;;;5093759;28;20184;-77
2023/08/31 07:29:31;;;;;;;3.87;3.60;;;17.00;99.90;;;;;;5093781;28;20174;-78
2023/08/31 07:31:57;;;;;;;4.13;3.90;;;17.20;99.90;;;;;;5098586;28;20204;-77
2023/08/31 07:34:23;;;;;;;3.90;3.40;;;17.20;99.90;;;;;;5093784;28;20246;-77
2023/08/31 07:36:49;;;;;;;4.00;3.60;;;17.10;99.90;;;;;;5093439;28;20213;-79
2023/08/31 07:39:17;;;;;;;3.80;3.50;;;17.30;99.90;;;;;;5093767;28;20664;-77
2023/08/31 07:41:43;;;;;;;3.97;3.67;;;17.40;99.90;;;;;;5098664;28;20638;-78
2023/08/31 07:44:09;;;;;;;4.13;3.30;;;17.50;99.90;;;;;;5095239;28;20171;-79
2023/08/31 07:46:35;;;;;;;3.87;3.47;;;17.60;99.90;;;;;;5097569;28;20231;-78
2023/08/31 07:49:02;;;;;;;3.07;2.87;;;17.70;99.90;;;;;;5079359;28;20181;-79
2023/08/31 07:51:27;;;;;;;3.50;3.20;;;17.80;99.90;;;;;;5097123;28;20597;-78
2023/08/31 07:53:53;;;;;;;3.10;2.90;;;17.80;99.90;;;;;;5096969;28;20171;-76
2023/08/31 07:56:19;;;;;;;2.73;2.53;;;17.80;99.90;;;;;;5083303;28;20214;-78
2023/08/31 07:58:45;;;;;;;2.80;2.60;;;17.80;99.90;;;;;;5059045;28;20209;-78
2023/08/31 08:01:11;;;;;;;3.53;3.23;;;17.70;99.90;;;;;;5076880;28;20269;-76
2023/08/31 08:03:36;;;;;;;2.77;2.57;;;17.80;99.90;;;;;;5076822;28;20221;-76
2023/08/31 08:06:03;;;;;;;5.63;2.67;;;17.90;99.90;;;;;;5077025;28;20708;-77
2023/08/31 08:08:29;;;;;;;3.07;2.83;;;17.90;99.90;;;;;;5078896;28;20185;-78
2023/08/31 08:10:55;;;;;;;2.60;2.40;;;17.80;99.90;;;;;;5076758;28;20530;-79
2023/08/31 08:13:21;;;;;;;2.60;2.50;;;17.90;99.90;;;;;;5058869;28;20186;-79
2023/08/31 08:15:47;;;;;;;2.57;2.47;;;17.90;99.90;;;;;;5077131;28;20206;-77
2023/08/31 08:18:12;;;;;;;3.80;2.67;;;18.00;99.90;;;;;;5076847;28;20322;-78
2023/08/31 08:20:38;;;;;;;2.33;2.23;;;17.90;99.90;;;;;;5077129;28;20178;-77
2023/08/31 08:23:06;;;;;;;2.30;2.20;;;18.00;99.90;;;;;;5082455;28;20205;-80
2023/08/31 08:25:32;;;;;;;2.90;2.67;;;18.10;99.90;;;;;;5076320;28;20171;-77
2023/08/31 08:27:58;;;;;;;3.83;2.40;;;18.00;99.90;;;;;;5076250;28;20182;-77
2023/08/31 08:30:23;;;;;;;2.43;2.23;;;18.00;99.90;;;;;;5091947;28;20161;-77
2023/08/31 08:32:49;;;;;;;2.47;2.37;;;18.00;99.90;;;;;;5092233;28;20187;-79
2023/08/31 08:35:16;;;;;;;3.03;2.10;;;18.00;99.90;;;;;;5077498;28;20210;-79
2023/08/31 08:37:42;;;;;;;2.23;2.03;;;18.20;99.90;;;;;;5076152;28;20627;-79
2023/08/31 08:40:09;;;;;;;2.70;2.60;;;18.30;99.90;;;;;;5077227;28;20205;-76
2023/08/31 08:42:41;;;;;;;2.60;2.40;;;18.30;99.90;;;;;;5081959;28;20182;-77
2023/08/31 08:45:15;;;;;;;2.10;2.00;;;18.40;99.90;;;;;;5076113;28;20156;-80
2023/08/31 08:47:42;;;;;;;1.70;1.70;;;18.50;99.90;;;;;;5075826;28;20158;-78
2023/08/31 08:50:08;;;;;;;2.30;2.20;;;18.50;99.90;;;;;;5075946;28;20565;-78
2023/08/31 08:52:35;;;;;;;1.93;1.83;;;18.50;99.90;;;;;;5077145;28;20167;-79
2023/08/31 08:55:02;;;;;;;1.70;1.60;;;18.70;99.90;;;;;;5057738;28;20171;-79
2023/08/31 08:57:28;;;;;;;1.93;1.83;;;18.70;99.90;;;;;;5091537;28;20934;-80
2023/08/31 08:59:54;;;;;;;1.70;1.70;;;18.70;99.90;;;;;;5077961;28;20178;-81
2023/08/31 09:02:19;;;;;;;1.70;1.70;;;18.60;99.90;;;;;;5057674;28;20229;-79
2023/08/31 09:04:45;;;;;;;1.67;1.57;;;18.70;99.90;;;;;;5075352;28;20171;-75
2023/08/31 09:07:11;;;;;;;1.87;1.70;;;18.70;99.90;;;;;;5075671;28;20171;-76
2023/08/31 09:09:50;;;;;;;1.60;1.60;;;18.80;99.90;;;;;;5076106;28;20178;-78
2023/08/31 09:12:16;;;;;;;2.00;1.90;;;18.80;99.90;;;;;;5075116;28;20189;-76
2023/08/31 09:14:41;;;;;;;2.70;1.90;;;18.80;99.90;;;;;;5076062;28;20689;-80
2023/08/31 09:17:07;;;;;;;1.63;1.63;;;18.90;99.90;;;;;;5075317;28;20575;-77
2023/08/31 09:19:33;;;;;;;1.73;1.70;;;19.00;99.90;;;;;;5074600;28;20159;-76
2023/08/31 09:22:00;;;;;;;1.80;1.70;;;19.20;99.90;;;;;;5093322;28;20163;-76
2023/08/31 09:24:26;;;;;;;1.80;1.70;;;19.40;99.90;;;;;;5082733;28;20198;-75
2023/08/31 09:26:58;;;;;;;1.80;1.70;;;19.60;99.90;;;;;;5075421;28;20207;-74
2023/08/31 09:29:25;;;;;;;1.47;1.47;;;19.80;99.90;;;;;;5075348;28;20217;-77
2023/08/31 09:31:51;;;;;;;2.10;1.60;;;20.00;99.90;;;;;;5075066;28;20171;-76
2023/08/31 09:34:18;;;;;;;1.47;1.47;;;20.20;99.90;;;;;;5075190;28;20232;-76
2023/08/31 09:36:45;;;;;;;1.30;1.30;;;20.50;99.90;;;;;;5074931;28;20210;-76
2023/08/31 09:39:12;;;;;;;1.60;1.60;;;20.60;99.90;;;;;;5074974;28;20222;-77
2023/08/31 09:41:54;;;;;;;1.90;1.70;;;20.80;99.90;;;;;;5074743;28;20221;-77
2023/08/31 09:44:21;;;;;;;1.87;1.77;;;20.90;99.90;;;;;;5075170;28;20171;-76
2023/08/31 09:46:47;;;;;;;2.40;1.20;;;20.90;99.90;;;;;;5090320;28;20199;-78
2023/08/31 09:49:14;;;;;;;1.10;1.10;;;20.90;99.90;;;;;;5074886;28;20244;-77
2023/08/31 09:51:44;;;;;;;1.70;1.60;;;20.80;99.90;;;;;;5074386;28;20190;-78
2023/08/31 09:54:13;;;;;;;1.90;1.80;;;20.80;99.90;;;;;;5074682;28;20158;-78
2023/08/31 09:56:44;;;;;;;1.43;1.43;;;20.60;99.90;;;;;;5074403;28;20290;-77
2023/08/31 09:59:11;;;;;;;2.30;2.20;;;20.50;99.90;;;;;;5074823;28;20170;-78
2023/08/31 10:01:38;;;;;;;1.80;1.70;;;20.40;99.90;;;;;;5074377;28;20194;-77
2023/08/31 10:04:06;;;;;;;2.00;1.90;;;20.40;99.90;;;;;;5074920;28;20163;-77
2023/08/31 10:06:32;;;;;;;1.40;1.40;;;20.40;99.90;;;;;;5073758;28;20179;-76
2023/08/31 10:08:58;;;;;;;1.53;1.40;;;20.50;99.90;;;;;;5074268;28;20175;-75
2023/08/31 10:11:28;;;;;;;2.43;1.60;;;20.50;99.90;;;;;;5074233;28;20229;-79
2023/08/31 10:13:55;;;;;;;2.10;1.50;;;20.50;99.90;;;;;;5074299;28;20171;-77
2023/08/31 10:16:21;;;;;;;2.40;1.63;;;20.50;99.90;;;;;;5053421;28;20564;-79
2023/08/31 10:18:48;;;;;;;1.60;1.50;;;20.60;99.90;;;;;;5054550;28;20214;-76
2023/08/31 10:21:17;;;;;;;1.20;1.20;;;20.60;99.90;;;;;;5054103;28;20175;-78
2023/08/31 10:23:51;;;;;;;2.70;1.30;;;20.60;99.90;;;;;;5063536;28;20199;-77
2023/08/31 10:26:37;;;;;;;1.47;1.47;;;20.70;99.90;;;;;;5077927;28;20188;-77
2023/08/31 10:29:04;;;;;;;1.87;1.77;;;20.90;99.90;;;;;;5058546;28;20219;-77
2023/08/31 10:31:31;;;;;;;1.30;1.30;;;21.00;99.90;;;;;;5055316;28;20167;-76
2023/08/31 10:33:58;;;;;;;2.13;1.60;;;21.00;99.90;;;;;;5054967;28;20176;-79
2023/08/31 10:36:44;;;;;;;1.47;1.37;;;20.90;99.90;;;;;;5055278;28;20266;-78
2023/08/31 10:39:17;;;;;;;1.53;1.53;;;21.00;99.90;;;;;;5053919;28;20152;-77
2023/08/31 10:41:54;;;;;;;1.30;1.30;;;21.20;99.90;;;;;;5054401;28;20191;-78
2023/08/31 10:44:25;;;;;;;1.60;1.50;;;21.30;99.90;;;;;;5056576;28;20214;-76
2023/08/31 10:46:51;;;;;;;2.77;1.50;;;21.40;99.90;;;;;;5055581;28;20194;-77
2023/08/31 10:49:22;;;;;;;2.10;1.47;;;21.60;99.90;;;;;;5053555;28;20168;-78
2023/08/31 10:51:56;;;;;;;1.50;1.50;;;21.60;99.90;;;;;;5053366;28;20202;-76
2023/08/31 10:54:27;;;;;;;1.40;1.30;;;21.70;99.90;;;;;;5053455;28;20168;-79
2023/08/31 10:57:05;;;;;;;1.40;1.40;;;21.70;99.90;;;;;;5053570;28;20229;-80
2023/08/31 10:59:52;;;;;;;1.80;1.60;;;21.70;99.90;;;;;;5053125;28;20156;-77
2023/08/31 11:02:38;;;;;;;1.50;1.47;;;21.80;99.90;;;;;;5053551;28;20160;-78
2023/08/31 11:05:09;;;;;;;1.20;1.20;;;21.90;99.90;;;;;;5052980;28;20199;-78
2023/08/31 11:07:35;;;;;;;2.43;1.73;;;21.80;99.90;;;;;;5053328;28;20164;-76
2023/08/31 11:10:12;;;;;;;1.73;1.67;;;21.90;99.90;;;;;;5063353;28;20239;-78
2023/08/31 11:12:43;;;;;;;1.80;1.20;;;22.00;99.90;;;;;;5035350;28;20171;-78
2023/08/31 11:15:11;;;;;;;1.30;1.30;;;22.10;99.90;;;;;;5053051;28;20589;-77
2023/08/31 11:17:40;;;;;;;1.97;1.70;;;22.10;99.90;;;;;;5067905;28;20288;-78
2023/08/31 11:20:08;;;;;;;1.87;1.50;;;22.20;99.90;;;;;;5085525;28;20163;-77
2023/08/31 11:22:38;;;;;;;1.73;1.43;;;22.20;99.90;;;;;;5100763;28;20166;-77
2023/08/31 11:25:04;;;;;;;1.40;1.40;;;22.20;99.90;;;;;;5080224;28;20543;-78
2023/08/31 11:27:30;;;;;;;1.40;1.40;;;22.10;99.90;;;;;;5079938;28;20646;-78
2023/08/31 11:29:56;;;;;;;1.43;1.43;;;22.10;99.90;;;;;;5081512;28;20177;-79
2023/08/31 11:32:24;;;;;;;1.80;1.27;;;22.00;99.90;;;;;;5080603;28;20538;-76
2023/08/31 11:34:50;;;;;;;1.50;1.50;;;22.10;99.90;;;;;;5062646;28;20206;-78
2023/08/31 11:37:19;;;;;;;2.80;2.43;;;22.10;99.90;;;;;;5080249;28;20213;-78
2023/08/31 11:39:52;;;;;;;1.30;1.30;;;22.20;99.90;;;;;;5081180;28;20179;-78
2023/08/31 11:42:20;;;;;;;1.23;1.23;;;22.00;99.90;;;;;;5063111;28;20179;-77
2023/08/31 11:44:49;;;;;;;1.70;1.63;;;22.10;99.90;;;;;;5079785;28;20185;-77
2023/08/31 11:47:16;;;;;;;2.17;1.83;;;22.20;99.90;;;;;;5079275;28;20258;-77
2023/08/31 11:49:42;;;;;;;1.50;1.50;;;22.30;99.90;;;;;;5061632;28;20171;-79
2023/08/31 11:52:11;;;;;;;1.53;1.43;;;22.50;99.90;;;;;;5079413;28;20163;-78
2023/08/31 11:54:39;;;;;;;1.60;1.50;;;22.60;99.90;;;;;;5080349;28;20172;-79
2023/08/31 11:57:08;;;;;;;1.77;1.63;;;22.60;99.90;;;;;;5079397;28;20222;-77
2023/08/31 11:59:36;;;;;;;2.20;1.60;;;22.70;99.90;;;;;;5079487;28;20200;-78
2023/08/31 12:02:02;;;;;;;1.37;1.33;;;22.80;99.90;;;;;;5079333;28;20174;-78
2023/08/31 12:04:28;;;;;;;1.20;1.20;;;22.80;99.90;;;;;;5081124;28;20187;-77
2023/08/31 12:07:04;;;;;;;1.70;1.60;;;22.80;99.90;;;;;;5080838;28;20206;-76
2023/08/31 12:09:31;;;;;;;1.63;1.53;;;22.70;99.90;;;;;;5061739;28;20170;-80
2023/08/31 12:11:56;;;;;;;1.50;1.40;;;22.70;99.90;;;;;;5079456;28;20167;-77
2023/08/31 12:14:24;;;;;;;1.40;1.30;;;22.80;99.90;;;;;;5085138;28;20588;-77
2023/08/31 12:16:51;;;;;;;1.40;1.40;;;22.90;99.90;;;;;;5087114;28;20581;-78
2023/08/31 12:19:18;;;;;;;1.30;1.30;;;22.90;99.90;;;;;;5095438;28;20588;-77
2023/08/31 12:21:47;;;;;;;1.50;1.40;;;22.90;99.90;;;;;;5083597;28;20234;-76
2023/08/31 12:24:12;;;;;;;1.38;1.27;;;22.90;99.90;;;;;;5085636;28;20179;-75
2023/08/31 12:26:39;;;;;;;1.60;1.50;;;22.90;99.90;;;;;;5073522;28;20196;-80
2023/08/31 12:29:05;;;;;;;1.67;1.57;;;22.90;99.90;;;;;;5084973;28;20221;-77
2023/08/31 12:31:32;;;;;;;1.50;1.40;;;22.90;99.90;;;;;;5078678;28;20199;-76
2023/08/31 12:33:58;;;;;;;1.48;1.42;;;22.80;99.90;;;;;;5087013;28;20167;-76
2023/08/31 12:36:23;;;;;;;1.17;1.17;;;22.80;99.90;;;;;;5080094;28;20206;-76
2023/08/31 12:38:49;;;;;;;1.37;1.37;;;22.60;99.90;;;;;;5076204;28;20175;-78
2023/08/31 12:41:15;;;;;;;2.47;1.40;;;22.60;99.90;;;;;;5078737;28;20171;-77
2023/08/31 12:43:40;;;;;;;1.65;1.55;;;22.40;99.90;;;;;;5077370;28;20239;-76
2023/08/31 12:46:06;;;;;;;1.53;1.50;;;22.50;99.90;;;;;;5081435;28;20179;-78
2023/08/31 12:48:35;;;;;;;1.53;1.53;;;22.50;99.90;;;;;;5076146;28;20688;-76